sensor_id;sensor_type;location;lat;lon;timestamp;P1;durP1;ratioP1;P2;durP2;ratioP2
18804;SDS011;9530;48.930;9.526;2022-07-01T00:02:17;5.43;;;1.30;;
18804;SDS011;9530;48.930;9.526;2022-07-01T00:04:44;1.83;;;1.07;;
18804;SDS011;9530;48.930;9.526;2022-07-01T00:07:10;3.40;;;1.07;;
18804;SDS011;9530;48.930;9.526;2022-07-01T00:09:37;5.63;;;1.17;;
18804;SDS011;9530;48.930;9.526;2022-07-01T00:12:04;3.57;;;1.00;;
18804;SDS011;9530;48.930;9.526;2022-07-01T00:14:33;1.20;;;0.97;;
18804;SDS011;9530;48.930;9.526;2022-07-01T00:17:00;2.30;;;1.10;;
18804;SDS011;9530;48.930;9.526;2022-07-01T00:19:26;1.90;;;1.13;;
18804;SDS011;9530;48.930;9.526;2022-07-01T00:21:53;2.70;;;1.00;;
18804;SDS011;9530;48.930;9.526;2022-07-01T00:24:20;1.63;;;1.00;;
18804;SDS011;9530;48.930;9.526;2022-07-01T00:26:46;1.50;;;0.90;;
18804;SDS011;9530;48.930;9.526;2022-07-01T00:29:13;3.07;;;1.27;;
18804;SDS011;9530;48.930;9.526;2022-07-01T00:31:41;1.87;;;1.00;;
18804;SDS011;9530;48.930;9.526;2022-07-01T00:34:08;1.83;;;0.87;;
18804;SDS011;9530;48.930;9.526;2022-07-01T00:36:34;1.83;;;1.00;;
18804;SDS011;9530;48.930;9.526;2022-07-01T00:39:01;3.57;;;1.17;;
18804;SDS011;9530;48.930;9.526;2022-07-01T00:41:28;4.53;;;1.07;;
18804;SDS011;9530;48.930;9.526;2022-07-01T00:43:55;2.00;;;1.00;;
18804;SDS011;9530;48.930;9.526;2022-07-01T00:46:23;1.60;;;0.90;;
18804;SDS011;9530;48.930;9.526;2022-07-01T00:48:51;1.43;;;1.00;;
18804;SDS011;9530;48.930;9.526;2022-07-01T00:51:21;2.50;;;1.10;;
18804;SDS011;9530;48.930;9.526;2022-07-01T00:53:48;2.60;;;1.23;;
18804;SDS011;9530;48.930;9.526;2022-07-01T00:56:14;2.00;;;1.10;;
18804;SDS011;9530;48.930;9.526;2022-07-01T00:58:41;2.87;;;1.07;;
18804;SDS011;9530;48.930;9.526;2022-07-01T01:01:09;3.93;;;1.00;;
18804;SDS011;9530;48.930;9.526;2022-07-01T01:03:35;4.83;;;1.10;;
18804;SDS011;9530;48.930;9.526;2022-07-01T01:06:04;1.43;;;1.03;;
18804;SDS011;9530;48.930;9.526;2022-07-01T01:08:31;2.40;;;1.20;;
18804;SDS011;9530;48.930;9.526;2022-07-01T01:10:57;3.17;;;1.10;;
18804;SDS011;9530;48.930;9.526;2022-07-01T01:13:25;3.87;;;1.20;;
18804;SDS011;9530;48.930;9.526;2022-07-01T01:15:51;2.33;;;1.10;;
18804;SDS011;9530;48.930;9.526;2022-07-01T01:18:18;2.37;;;1.00;;
18804;SDS011;9530;48.930;9.526;2022-07-01T01:20:46;2.30;;;1.20;;
18804;SDS011;9530;48.930;9.526;2022-07-01T01:23:13;1.67;;;0.90;;
18804;SDS011;9530;48.930;9.526;2022-07-01T01:25:39;1.60;;;0.90;;
18804;SDS011;9530;48.930;9.526;2022-07-01T01:28:06;3.33;;;1.20;;
18804;SDS011;9530;48.930;9.526;2022-07-01T01:30:33;1.40;;;0.90;;
18804;SDS011;9530;48.930;9.526;2022-07-01T01:33:00;3.20;;;0.90;;
18804;SDS011;9530;48.930;9.526;2022-07-01T01:35:27;1.30;;;0.90;;
18804;SDS011;9530;48.930;9.526;2022-07-01T01:37:55;6.03;;;1.10;;
18804;SDS011;9530;48.930;9.526;2022-07-01T01:40:22;1.33;;;1.00;;
18804;SDS011;9530;48.930;9.526;2022-07-01T01:42:48;2.50;;;1.00;;
18804;SDS011;9530;48.930;9.526;2022-07-01T01:45:15;3.43;;;1.30;;
18804;SDS011;9530;48.930;9.526;2022-07-01T01:47:42;1.73;;;1.00;;
18804;SDS011;9530;48.930;9.526;2022-07-01T01:50:09;3.13;;;1.10;;
18804;SDS011;9530;48.930;9.526;2022-07-01T01:52:38;1.97;;;1.17;;
18804;SDS011;9530;48.930;9.526;2022-07-01T01:55:09;1.73;;;1.20;;
18804;SDS011;9530;48.930;9.526;2022-07-01T01:57:36;2.30;;;1.10;;
18804;SDS011;9530;48.930;9.526;2022-07-01T02:00:03;4.03;;;1.13;;
18804;SDS011;9530;48.930;9.526;2022-07-01T02:02:31;2.03;;;0.97;;
18804;SDS011;9530;48.930;9.526;2022-07-01T02:04:58;2.87;;;1.10;;
18804;SDS011;9530;48.930;9.526;2022-07-01T02:07:25;3.33;;;1.20;;
18804;SDS011;9530;48.930;9.526;2022-07-01T02:09:51;1.40;;;1.10;;
18804;SDS011;9530;48.930;9.526;2022-07-01T02:12:20;1.63;;;1.07;;
18804;SDS011;9530;48.930;9.526;2022-07-01T02:14:46;1.87;;;1.20;;
18804;SDS011;9530;48.930;9.526;2022-07-01T02:17:13;4.10;;;1.33;;
18804;SDS011;9530;48.930;9.526;2022-07-01T02:19:39;1.80;;;1.17;;
18804;SDS011;9530;48.930;9.526;2022-07-01T02:22:06;1.90;;;1.10;;
18804;SDS011;9530;48.930;9.526;2022-07-01T02:24:33;1.47;;;0.97;;
18804;SDS011;9530;48.930;9.526;2022-07-01T02:26:59;1.87;;;1.07;;
18804;SDS011;9530;48.930;9.526;2022-07-01T02:29:27;6.33;;;1.53;;
18804;SDS011;9530;48.930;9.526;2022-07-01T02:31:54;1.30;;;1.03;;
18804;SDS011;9530;48.930;9.526;2022-07-01T02:34:21;5.50;;;1.40;;
18804;SDS011;9530;48.930;9.526;2022-07-01T02:36:47;2.77;;;1.00;;
18804;SDS011;9530;48.930;9.526;2022-07-01T02:39:14;1.73;;;1.13;;
18804;SDS011;9530;48.930;9.526;2022-07-01T02:41:41;5.80;;;1.20;;
18804;SDS011;9530;48.930;9.526;2022-07-01T02:44:25;1.70;;;0.90;;
18804;SDS011;9530;48.930;9.526;2022-07-01T02:46:53;1.30;;;1.00;;
18804;SDS011;9530;48.930;9.526;2022-07-01T02:49:20;1.37;;;0.90;;
18804;SDS011;9530;48.930;9.526;2022-07-01T02:51:46;3.23;;;0.90;;
18804;SDS011;9530;48.930;9.526;2022-07-01T02:54:13;1.87;;;0.93;;
18804;SDS011;9530;48.930;9.526;2022-07-01T02:56:39;1.20;;;0.80;;
18804;SDS011;9530;48.930;9.526;2022-07-01T02:59:06;3.20;;;0.90;;
18804;SDS011;9530;48.930;9.526;2022-07-01T03:01:33;1.23;;;0.80;;
18804;SDS011;9530;48.930;9.526;2022-07-01T03:04:01;2.30;;;0.90;;
18804;SDS011;9530;48.930;9.526;2022-07-01T03:06:28;1.30;;;0.93;;
18804;SDS011;9530;48.930;9.526;2022-07-01T03:08:54;1.50;;;1.00;;
18804;SDS011;9530;48.930;9.526;2022-07-01T03:11:23;2.40;;;1.23;;
18804;SDS011;9530;48.930;9.526;2022-07-01T03:13:49;1.57;;;0.90;;
18804;SDS011;9530;48.930;9.526;2022-07-01T03:16:16;0.90;;;0.80;;
18804;SDS011;9530;48.930;9.526;2022-07-01T03:18:42;2.40;;;0.90;;
18804;SDS011;9530;48.930;9.526;2022-07-01T03:21:10;1.67;;;1.00;;
18804;SDS011;9530;48.930;9.526;2022-07-01T03:23:37;2.07;;;0.90;;
18804;SDS011;9530;48.930;9.526;2022-07-01T03:28:32;2.60;;;1.13;;
18804;SDS011;9530;48.930;9.526;2022-07-01T03:30:59;2.60;;;0.90;;
18804;SDS011;9530;48.930;9.526;2022-07-01T03:33:26;1.40;;;0.90;;
18804;SDS011;9530;48.930;9.526;2022-07-01T03:35:52;1.40;;;0.90;;
18804;SDS011;9530;48.930;9.526;2022-07-01T03:38:20;1.23;;;0.87;;
18804;SDS011;9530;48.930;9.526;2022-07-01T03:40:47;0.80;;;0.80;;
18804;SDS011;9530;48.930;9.526;2022-07-01T03:43:14;2.47;;;1.10;;
18804;SDS011;9530;48.930;9.526;2022-07-01T03:45:40;3.07;;;1.00;;
18804;SDS011;9530;48.930;9.526;2022-07-01T03:48:07;1.23;;;1.03;;
18804;SDS011;9530;48.930;9.526;2022-07-01T03:50:34;0.93;;;0.80;;
18804;SDS011;9530;48.930;9.526;2022-07-01T03:53:00;1.37;;;1.03;;
18804;SDS011;9530;48.930;9.526;2022-07-01T03:55:46;1.43;;;0.90;;
18804;SDS011;9530;48.930;9.526;2022-07-01T03:58:12;2.00;;;0.80;;
18804;SDS011;9530;48.930;9.526;2022-07-01T04:00:39;2.47;;;0.90;;
18804;SDS011;9530;48.930;9.526;2022-07-01T04:03:06;4.10;;;1.10;;
18804;SDS011;9530;48.930;9.526;2022-07-01T04:05:33;1.30;;;1.00;;
18804;SDS011;9530;48.930;9.526;2022-07-01T04:08:02;1.33;;;1.03;;
18804;SDS011;9530;48.930;9.526;2022-07-01T04:10:30;2.07;;;1.10;;
18804;SDS011;9530;48.930;9.526;2022-07-01T04:12:59;3.03;;;1.10;;
18804;SDS011;9530;48.930;9.526;2022-07-01T04:15:26;3.30;;;1.10;;
18804;SDS011;9530;48.930;9.526;2022-07-01T04:17:53;1.13;;;0.97;;
18804;SDS011;9530;48.930;9.526;2022-07-01T04:20:20;2.07;;;1.20;;
18804;SDS011;9530;48.930;9.526;2022-07-01T04:22:47;1.30;;;1.10;;
18804;SDS011;9530;48.930;9.526;2022-07-01T04:25:12;1.53;;;1.10;;
18804;SDS011;9530;48.930;9.526;2022-07-01T04:27:39;2.17;;;1.00;;
18804;SDS011;9530;48.930;9.526;2022-07-01T04:30:08;4.17;;;1.27;;
18804;SDS011;9530;48.930;9.526;2022-07-01T04:32:36;1.13;;;1.00;;
18804;SDS011;9530;48.930;9.526;2022-07-01T04:35:03;1.87;;;1.10;;
18804;SDS011;9530;48.930;9.526;2022-07-01T04:37:30;1.30;;;1.20;;
18804;SDS011;9530;48.930;9.526;2022-07-01T04:39:57;1.27;;;1.17;;
18804;SDS011;9530;48.930;9.526;2022-07-01T04:42:24;2.57;;;1.33;;
18804;SDS011;9530;48.930;9.526;2022-07-01T04:44:50;1.20;;;0.97;;
18804;SDS011;9530;48.930;9.526;2022-07-01T04:47:18;3.03;;;1.40;;
18804;SDS011;9530;48.930;9.526;2022-07-01T04:49:46;2.03;;;1.10;;
18804;SDS011;9530;48.930;9.526;2022-07-01T04:52:12;1.60;;;1.37;;
18804;SDS011;9530;48.930;9.526;2022-07-01T04:54:39;3.07;;;1.27;;
18804;SDS011;9530;48.930;9.526;2022-07-01T04:57:06;2.47;;;1.30;;
18804;SDS011;9530;48.930;9.526;2022-07-01T04:59:32;2.40;;;1.53;;
18804;SDS011;9530;48.930;9.526;2022-07-01T05:01:59;4.53;;;1.60;;
18804;SDS011;9530;48.930;9.526;2022-07-01T05:04:27;1.50;;;1.23;;
18804;SDS011;9530;48.930;9.526;2022-07-01T05:06:54;1.70;;;1.40;;
18804;SDS011;9530;48.930;9.526;2022-07-01T05:09:21;3.53;;;1.60;;
18804;SDS011;9530;48.930;9.526;2022-07-01T05:11:47;3.20;;;1.50;;
18804;SDS011;9530;48.930;9.526;2022-07-01T05:14:14;3.03;;;1.37;;
18804;SDS011;9530;48.930;9.526;2022-07-01T05:16:41;2.83;;;1.57;;
18804;SDS011;9530;48.930;9.526;2022-07-01T05:19:07;2.13;;;1.43;;
18804;SDS011;9530;48.930;9.526;2022-07-01T05:21:53;4.33;;;1.70;;
18804;SDS011;9530;48.930;9.526;2022-07-01T05:24:23;3.33;;;1.70;;
18804;SDS011;9530;48.930;9.526;2022-07-01T05:26:50;2.40;;;1.57;;
18804;SDS011;9530;48.930;9.526;2022-07-01T05:29:17;4.87;;;1.87;;
18804;SDS011;9530;48.930;9.526;2022-07-01T05:31:44;3.50;;;1.60;;
18804;SDS011;9530;48.930;9.526;2022-07-01T05:34:10;4.87;;;1.97;;
18804;SDS011;9530;48.930;9.526;2022-07-01T05:36:37;5.47;;;1.80;;
18804;SDS011;9530;48.930;9.526;2022-07-01T05:39:05;4.60;;;1.70;;
18804;SDS011;9530;48.930;9.526;2022-07-01T05:41:32;3.13;;;1.77;;
18804;SDS011;9530;48.930;9.526;2022-07-01T05:43:59;2.80;;;1.97;;
18804;SDS011;9530;48.930;9.526;2022-07-01T05:46:26;2.60;;;1.90;;
18804;SDS011;9530;48.930;9.526;2022-07-01T05:48:53;7.67;;;5.60;;
18804;SDS011;9530;48.930;9.526;2022-07-01T05:51:19;6.10;;;1.93;;
18804;SDS011;9530;48.930;9.526;2022-07-01T05:53:46;3.83;;;1.80;;
18804;SDS011;9530;48.930;9.526;2022-07-01T05:56:14;3.57;;;1.90;;
18804;SDS011;9530;48.930;9.526;2022-07-01T05:58:41;4.70;;;1.73;;
18804;SDS011;9530;48.930;9.526;2022-07-01T06:01:08;5.37;;;2.20;;
18804;SDS011;9530;48.930;9.526;2022-07-01T06:03:34;4.60;;;2.10;;
18804;SDS011;9530;48.930;9.526;2022-07-01T06:06:01;3.63;;;2.30;;
18804;SDS011;9530;48.930;9.526;2022-07-01T06:08:28;4.13;;;2.10;;
18804;SDS011;9530;48.930;9.526;2022-07-01T06:10:55;5.47;;;2.07;;
18804;SDS011;9530;48.930;9.526;2022-07-01T06:13:23;2.90;;;2.13;;
18804;SDS011;9530;48.930;9.526;2022-07-01T06:15:50;2.27;;;2.00;;
18804;SDS011;9530;48.930;9.526;2022-07-01T06:18:17;3.70;;;2.10;;
18804;SDS011;9530;48.930;9.526;2022-07-01T06:20:44;2.43;;;2.00;;
18804;SDS011;9530;48.930;9.526;2022-07-01T06:23:10;3.50;;;2.00;;
18804;SDS011;9530;48.930;9.526;2022-07-01T06:25:37;2.60;;;2.30;;
18804;SDS011;9530;48.930;9.526;2022-07-01T06:28:03;3.03;;;2.20;;
18804;SDS011;9530;48.930;9.526;2022-07-01T06:30:31;3.07;;;2.17;;
18804;SDS011;9530;48.930;9.526;2022-07-01T06:32:58;2.60;;;2.20;;
18804;SDS011;9530;48.930;9.526;2022-07-01T06:35:25;2.20;;;2.00;;
18804;SDS011;9530;48.930;9.526;2022-07-01T06:37:52;2.67;;;2.40;;
18804;SDS011;9530;48.930;9.526;2022-07-01T06:40:18;3.87;;;2.40;;
18804;SDS011;9530;48.930;9.526;2022-07-01T06:42:45;3.67;;;2.57;;
18804;SDS011;9530;48.930;9.526;2022-07-01T06:45:12;3.63;;;2.40;;
18804;SDS011;9530;48.930;9.526;2022-07-01T06:47:40;2.67;;;2.47;;
18804;SDS011;9530;48.930;9.526;2022-07-01T06:50:07;6.23;;;2.37;;
18804;SDS011;9530;48.930;9.526;2022-07-01T06:52:34;3.53;;;2.30;;
18804;SDS011;9530;48.930;9.526;2022-07-01T06:55:01;3.50;;;2.57;;
18804;SDS011;9530;48.930;9.526;2022-07-01T06:57:27;3.30;;;2.50;;
18804;SDS011;9530;48.930;9.526;2022-07-01T06:59:54;5.33;;;2.17;;
18804;SDS011;9530;48.930;9.526;2022-07-01T07:02:21;2.63;;;2.43;;
18804;SDS011;9530;48.930;9.526;2022-07-01T07:04:49;3.17;;;2.60;;
18804;SDS011;9530;48.930;9.526;2022-07-01T07:07:19;5.20;;;2.50;;
18804;SDS011;9530;48.930;9.526;2022-07-01T07:09:45;2.50;;;2.30;;
18804;SDS011;9530;48.930;9.526;2022-07-01T07:12:12;3.20;;;2.90;;
18804;SDS011;9530;48.930;9.526;2022-07-01T07:14:39;2.47;;;2.27;;
18804;SDS011;9530;48.930;9.526;2022-07-01T07:17:05;2.73;;;2.23;;
18804;SDS011;9530;48.930;9.526;2022-07-01T07:19:32;5.43;;;2.40;;
18804;SDS011;9530;48.930;9.526;2022-07-01T07:22:00;2.50;;;2.30;;
18804;SDS011;9530;48.930;9.526;2022-07-01T07:24:27;2.60;;;2.07;;
18804;SDS011;9530;48.930;9.526;2022-07-01T07:26:54;3.03;;;2.40;;
18804;SDS011;9530;48.930;9.526;2022-07-01T07:29:20;3.13;;;2.27;;
18804;SDS011;9530;48.930;9.526;2022-07-01T07:31:47;4.00;;;2.47;;
18804;SDS011;9530;48.930;9.526;2022-07-01T07:34:14;2.90;;;2.37;;
18804;SDS011;9530;48.930;9.526;2022-07-01T07:36:40;3.07;;;2.20;;
18804;SDS011;9530;48.930;9.526;2022-07-01T07:39:08;4.73;;;2.80;;
18804;SDS011;9530;48.930;9.526;2022-07-01T07:41:35;3.23;;;2.93;;
18804;SDS011;9530;48.930;9.526;2022-07-01T07:44:02;3.53;;;2.70;;
18804;SDS011;9530;48.930;9.526;2022-07-01T07:46:29;3.13;;;2.77;;
18804;SDS011;9530;48.930;9.526;2022-07-01T07:48:55;3.20;;;2.90;;
18804;SDS011;9530;48.930;9.526;2022-07-01T07:51:22;4.47;;;3.10;;
18804;SDS011;9530;48.930;9.526;2022-07-01T07:53:49;4.70;;;3.03;;
18804;SDS011;9530;48.930;9.526;2022-07-01T07:56:17;3.70;;;3.10;;
18804;SDS011;9530;48.930;9.526;2022-07-01T07:58:44;5.67;;;2.80;;
18804;SDS011;9530;48.930;9.526;2022-07-01T08:01:10;4.10;;;2.83;;
18804;SDS011;9530;48.930;9.526;2022-07-01T08:03:37;3.37;;;2.57;;
18804;SDS011;9530;48.930;9.526;2022-07-01T08:06:04;2.97;;;2.67;;
18804;SDS011;9530;48.930;9.526;2022-07-01T08:08:31;4.60;;;2.70;;
18804;SDS011;9530;48.930;9.526;2022-07-01T08:10:58;2.93;;;2.60;;
18804;SDS011;9530;48.930;9.526;2022-07-01T08:13:27;2.93;;;2.33;;
18804;SDS011;9530;48.930;9.526;2022-07-01T08:15:54;2.80;;;2.50;;
18804;SDS011;9530;48.930;9.526;2022-07-01T08:18:21;2.80;;;2.47;;
18804;SDS011;9530;48.930;9.526;2022-07-01T08:20:47;2.87;;;2.57;;
18804;SDS011;9530;48.930;9.526;2022-07-01T08:23:17;2.83;;;2.30;;
18804;SDS011;9530;48.930;9.526;2022-07-01T08:25:44;3.77;;;2.20;;
18804;SDS011;9530;48.930;9.526;2022-07-01T08:28:11;3.27;;;2.80;;
18804;SDS011;9530;48.930;9.526;2022-07-01T08:30:39;3.23;;;2.60;;
18804;SDS011;9530;48.930;9.526;2022-07-01T08:33:05;3.60;;;2.77;;
18804;SDS011;9530;48.930;9.526;2022-07-01T08:35:32;2.70;;;2.30;;
18804;SDS011;9530;48.930;9.526;2022-07-01T08:37:59;5.03;;;2.47;;
18804;SDS011;9530;48.930;9.526;2022-07-01T08:40:26;4.40;;;2.60;;
18804;SDS011;9530;48.930;9.526;2022-07-01T08:42:54;5.00;;;2.90;;
18804;SDS011;9530;48.930;9.526;2022-07-01T08:45:23;3.37;;;2.83;;
18804;SDS011;9530;48.930;9.526;2022-07-01T08:47:53;3.03;;;2.70;;
18804;SDS011;9530;48.930;9.526;2022-07-01T08:50:22;3.50;;;2.53;;
18804;SDS011;9530;48.930;9.526;2022-07-01T08:52:50;3.27;;;2.70;;
18804;SDS011;9530;48.930;9.526;2022-07-01T08:55:17;3.10;;;2.67;;
18804;SDS011;9530;48.930;9.526;2022-07-01T08:57:44;3.43;;;3.13;;
18804;SDS011;9530;48.930;9.526;2022-07-01T09:00:11;3.17;;;2.87;;
18804;SDS011;9530;48.930;9.526;2022-07-01T09:02:48;3.70;;;3.40;;
18804;SDS011;9530;48.930;9.526;2022-07-01T09:05:17;3.63;;;3.23;;
18804;SDS011;9530;48.930;9.526;2022-07-01T09:07:44;5.27;;;4.77;;
18804;SDS011;9530;48.930;9.526;2022-07-01T09:10:12;4.70;;;4.13;;
18804;SDS011;9530;48.930;9.526;2022-07-01T09:12:41;4.43;;;3.60;;
18804;SDS011;9530;48.930;9.526;2022-07-01T09:15:18;3.47;;;3.17;;
18804;SDS011;9530;48.930;9.526;2022-07-01T09:17:51;3.60;;;3.30;;
18804;SDS011;9530;48.930;9.526;2022-07-01T09:20:30;4.00;;;3.07;;
18804;SDS011;9530;48.930;9.526;2022-07-01T09:23:02;3.57;;;2.97;;
18804;SDS011;9530;48.930;9.526;2022-07-01T09:25:31;2.63;;;2.43;;
18804;SDS011;9530;48.930;9.526;2022-07-01T09:30:46;4.40;;;2.37;;
18804;SDS011;9530;48.930;9.526;2022-07-01T09:33:15;3.23;;;2.93;;
18804;SDS011;9530;48.930;9.526;2022-07-01T09:35:45;3.47;;;2.47;;
18804;SDS011;9530;48.930;9.526;2022-07-01T09:38:15;3.07;;;2.43;;
18804;SDS011;9530;48.930;9.526;2022-07-01T09:40:53;2.80;;;2.50;;
18804;SDS011;9530;48.930;9.526;2022-07-01T09:43:22;2.83;;;2.50;;
18804;SDS011;9530;48.930;9.526;2022-07-01T09:45:50;3.50;;;2.20;;
18804;SDS011;9530;48.930;9.526;2022-07-01T09:48:19;3.03;;;2.20;;
18804;SDS011;9530;48.930;9.526;2022-07-01T09:50:47;4.03;;;2.40;;
18804;SDS011;9530;48.930;9.526;2022-07-01T09:53:14;2.73;;;2.50;;
18804;SDS011;9530;48.930;9.526;2022-07-01T09:55:41;3.03;;;2.70;;
18804;SDS011;9530;48.930;9.526;2022-07-01T09:58:08;2.30;;;2.10;;
18804;SDS011;9530;48.930;9.526;2022-07-01T10:00:36;3.50;;;2.50;;
18804;SDS011;9530;48.930;9.526;2022-07-01T10:03:03;3.07;;;2.50;;
18804;SDS011;9530;48.930;9.526;2022-07-01T10:05:33;3.00;;;2.63;;
18804;SDS011;9530;48.930;9.526;2022-07-01T10:11:09;3.03;;;2.70;;
18804;SDS011;9530;48.930;9.526;2022-07-01T10:13:48;4.57;;;2.47;;
18804;SDS011;9530;48.930;9.526;2022-07-01T10:16:15;3.00;;;2.70;;
18804;SDS011;9530;48.930;9.526;2022-07-01T10:18:43;2.87;;;2.60;;
18804;SDS011;9530;48.930;9.526;2022-07-01T10:21:09;3.03;;;2.70;;
18804;SDS011;9530;48.930;9.526;2022-07-01T10:23:56;3.73;;;2.30;;
18804;SDS011;9530;48.930;9.526;2022-07-01T10:26:37;2.60;;;2.00;;
18804;SDS011;9530;48.930;9.526;2022-07-01T10:29:04;3.67;;;2.20;;
18804;SDS011;9530;48.930;9.526;2022-07-01T10:31:35;3.37;;;2.30;;
18804;SDS011;9530;48.930;9.526;2022-07-01T10:34:02;2.40;;;2.20;;
18804;SDS011;9530;48.930;9.526;2022-07-01T10:36:31;2.90;;;2.10;;
18804;SDS011;9530;48.930;9.526;2022-07-01T10:39:18;2.37;;;1.87;;
18804;SDS011;9530;48.930;9.526;2022-07-01T10:42:00;1.90;;;1.70;;
18804;SDS011;9530;48.930;9.526;2022-07-01T10:44:29;2.73;;;1.50;;
18804;SDS011;9530;48.930;9.526;2022-07-01T10:47:04;2.27;;;1.83;;
18804;SDS011;9530;48.930;9.526;2022-07-01T10:52:30;1.80;;;1.53;;
18804;SDS011;9530;48.930;9.526;2022-07-01T10:54:59;1.67;;;1.50;;
18804;SDS011;9530;48.930;9.526;2022-07-01T10:57:28;1.83;;;1.50;;
18804;SDS011;9530;48.930;9.526;2022-07-01T10:59:58;2.07;;;1.60;;
18804;SDS011;9530;48.930;9.526;2022-07-01T11:02:57;2.40;;;1.60;;
18804;SDS011;9530;48.930;9.526;2022-07-01T11:05:38;2.57;;;1.70;;
18804;SDS011;9530;48.930;9.526;2022-07-01T11:08:06;2.53;;;1.50;;
18804;SDS011;9530;48.930;9.526;2022-07-01T11:10:35;4.47;;;1.60;;
18804;SDS011;9530;48.930;9.526;2022-07-01T11:13:02;1.93;;;1.37;;
18804;SDS011;9530;48.930;9.526;2022-07-01T11:15:29;2.97;;;1.60;;
18804;SDS011;9530;48.930;9.526;2022-07-01T11:17:57;1.80;;;1.30;;
18804;SDS011;9530;48.930;9.526;2022-07-01T11:20:24;1.73;;;1.40;;
18804;SDS011;9530;48.930;9.526;2022-07-01T11:22:52;2.50;;;1.40;;
18804;SDS011;9530;48.930;9.526;2022-07-01T11:25:19;1.33;;;1.20;;
18804;SDS011;9530;48.930;9.526;2022-07-01T11:27:49;1.83;;;1.40;;
18804;SDS011;9530;48.930;9.526;2022-07-01T11:30:16;1.40;;;1.30;;
18804;SDS011;9530;48.930;9.526;2022-07-01T11:32:46;2.63;;;1.40;;
18804;SDS011;9530;48.930;9.526;2022-07-01T11:35:14;2.03;;;1.30;;
18804;SDS011;9530;48.930;9.526;2022-07-01T11:38:04;3.07;;;1.50;;
18804;SDS011;9530;48.930;9.526;2022-07-01T11:40:49;2.60;;;1.10;;
18804;SDS011;9530;48.930;9.526;2022-07-01T11:43:20;2.30;;;1.50;;
18804;SDS011;9530;48.930;9.526;2022-07-01T11:45:49;4.97;;;1.10;;
18804;SDS011;9530;48.930;9.526;2022-07-01T11:48:29;1.93;;;1.30;;
18804;SDS011;9530;48.930;9.526;2022-07-01T11:50:57;1.80;;;1.30;;
18804;SDS011;9530;48.930;9.526;2022-07-01T11:53:25;1.70;;;1.23;;
18804;SDS011;9530;48.930;9.526;2022-07-01T11:55:53;3.40;;;1.30;;
18804;SDS011;9530;48.930;9.526;2022-07-01T11:58:21;2.03;;;1.40;;
18804;SDS011;9530;48.930;9.526;2022-07-01T12:00:48;1.60;;;1.43;;
18804;SDS011;9530;48.930;9.526;2022-07-01T12:03:28;2.23;;;1.57;;
18804;SDS011;9530;48.930;9.526;2022-07-01T12:05:56;2.17;;;1.40;;
18804;SDS011;9530;48.930;9.526;2022-07-01T12:08:23;1.60;;;1.40;;
18804;SDS011;9530;48.930;9.526;2022-07-01T12:10:50;1.97;;;1.20;;
18804;SDS011;9530;48.930;9.526;2022-07-01T12:13:22;2.10;;;1.30;;
18804;SDS011;9530;48.930;9.526;2022-07-01T12:15:49;2.80;;;1.40;;
18804;SDS011;9530;48.930;9.526;2022-07-01T12:18:16;3.53;;;1.50;;
18804;SDS011;9530;48.930;9.526;2022-07-01T12:20:47;2.27;;;1.20;;
18804;SDS011;9530;48.930;9.526;2022-07-01T12:23:19;1.77;;;1.33;;
18804;SDS011;9530;48.930;9.526;2022-07-01T12:25:46;2.13;;;1.30;;
18804;SDS011;9530;48.930;9.526;2022-07-01T12:28:26;1.80;;;1.40;;
18804;SDS011;9530;48.930;9.526;2022-07-01T12:31:00;2.00;;;1.50;;
18804;SDS011;9530;48.930;9.526;2022-07-01T12:33:28;2.20;;;1.50;;
18804;SDS011;9530;48.930;9.526;2022-07-01T12:35:55;1.43;;;1.33;;
18804;SDS011;9530;48.930;9.526;2022-07-01T12:38:22;3.63;;;1.43;;
18804;SDS011;9530;48.930;9.526;2022-07-01T12:40:48;1.97;;;1.40;;
18804;SDS011;9530;48.930;9.526;2022-07-01T12:43:26;1.73;;;1.20;;
18804;SDS011;9530;48.930;9.526;2022-07-01T12:45:56;2.00;;;1.37;;
18804;SDS011;9530;48.930;9.526;2022-07-01T12:48:23;3.53;;;1.60;;
18804;SDS011;9530;48.930;9.526;2022-07-01T12:50:54;2.20;;;1.40;;
18804;SDS011;9530;48.930;9.526;2022-07-01T12:53:22;1.97;;;1.50;;
18804;SDS011;9530;48.930;9.526;2022-07-01T12:55:50;1.77;;;1.40;;
18804;SDS011;9530;48.930;9.526;2022-07-01T12:58:19;2.43;;;1.30;;
18804;SDS011;9530;48.930;9.526;2022-07-01T13:00:49;2.33;;;1.47;;
18804;SDS011;9530;48.930;9.526;2022-07-01T13:03:20;2.73;;;1.40;;
18804;SDS011;9530;48.930;9.526;2022-07-01T13:05:48;2.00;;;1.30;;
18804;SDS011;9530;48.930;9.526;2022-07-01T13:08:15;1.93;;;1.43;;
18804;SDS011;9530;48.930;9.526;2022-07-01T13:10:42;1.70;;;1.30;;
18804;SDS011;9530;48.930;9.526;2022-07-01T13:13:10;2.57;;;1.50;;
18804;SDS011;9530;48.930;9.526;2022-07-01T13:15:37;1.93;;;1.37;;
18804;SDS011;9530;48.930;9.526;2022-07-01T13:18:05;3.20;;;1.50;;
18804;SDS011;9530;48.930;9.526;2022-07-01T13:20:32;2.90;;;1.43;;
18804;SDS011;9530;48.930;9.526;2022-07-01T13:22:59;4.00;;;1.60;;
18804;SDS011;9530;48.930;9.526;2022-07-01T13:25:26;2.27;;;1.63;;
18804;SDS011;9530;48.930;9.526;2022-07-01T13:27:53;1.90;;;1.40;;
18804;SDS011;9530;48.930;9.526;2022-07-01T13:30:19;2.63;;;1.20;;
18804;SDS011;9530;48.930;9.526;2022-07-01T13:32:47;3.20;;;1.20;;
18804;SDS011;9530;48.930;9.526;2022-07-01T13:35:18;4.33;;;1.50;;
18804;SDS011;9530;48.930;9.526;2022-07-01T13:37:46;4.70;;;1.60;;
18804;SDS011;9530;48.930;9.526;2022-07-01T13:40:12;1.27;;;1.07;;
18804;SDS011;9530;48.930;9.526;2022-07-01T13:42:39;2.50;;;1.40;;
18804;SDS011;9530;48.930;9.526;2022-07-01T13:45:06;3.00;;;1.67;;
18804;SDS011;9530;48.930;9.526;2022-07-01T13:47:33;1.87;;;1.27;;
18804;SDS011;9530;48.930;9.526;2022-07-01T13:50:00;2.87;;;1.50;;
18804;SDS011;9530;48.930;9.526;2022-07-01T13:52:28;2.83;;;1.60;;
18804;SDS011;9530;48.930;9.526;2022-07-01T13:54:56;2.10;;;1.30;;
18804;SDS011;9530;48.930;9.526;2022-07-01T13:57:23;1.67;;;1.40;;
18804;SDS011;9530;48.930;9.526;2022-07-01T13:59:49;1.40;;;1.30;;
18804;SDS011;9530;48.930;9.526;2022-07-01T14:02:17;3.47;;;1.40;;
18804;SDS011;9530;48.930;9.526;2022-07-01T14:04:44;2.37;;;1.30;;
18804;SDS011;9530;48.930;9.526;2022-07-01T14:07:11;2.43;;;1.17;;
18804;SDS011;9530;48.930;9.526;2022-07-01T14:09:39;4.07;;;1.40;;
18804;SDS011;9530;48.930;9.526;2022-07-01T14:12:06;1.43;;;1.00;;
18804;SDS011;9530;48.930;9.526;2022-07-01T14:14:33;4.80;;;1.20;;
18804;SDS011;9530;48.930;9.526;2022-07-01T14:17:00;1.53;;;1.20;;
18804;SDS011;9530;48.930;9.526;2022-07-01T14:19:27;2.93;;;1.20;;
18804;SDS011;9530;48.930;9.526;2022-07-01T14:21:54;3.00;;;1.23;;
18804;SDS011;9530;48.930;9.526;2022-07-01T14:24:21;1.27;;;1.00;;
18804;SDS011;9530;48.930;9.526;2022-07-01T14:26:49;1.97;;;1.17;;
18804;SDS011;9530;48.930;9.526;2022-07-01T14:29:15;2.30;;;1.10;;
18804;SDS011;9530;48.930;9.526;2022-07-01T14:31:42;3.33;;;1.20;;
18804;SDS011;9530;48.930;9.526;2022-07-01T14:34:09;2.53;;;1.33;;
18804;SDS011;9530;48.930;9.526;2022-07-01T14:36:35;1.33;;;1.00;;
18804;SDS011;9530;48.930;9.526;2022-07-01T14:39:02;2.10;;;1.10;;
18804;SDS011;9530;48.930;9.526;2022-07-01T14:41:29;3.90;;;1.13;;
18804;SDS011;9530;48.930;9.526;2022-07-01T14:43:57;1.97;;;1.10;;
18804;SDS011;9530;48.930;9.526;2022-07-01T14:46:24;1.70;;;1.10;;
18804;SDS011;9530;48.930;9.526;2022-07-01T14:48:50;2.73;;;1.00;;
18804;SDS011;9530;48.930;9.526;2022-07-01T14:51:17;4.97;;;1.20;;
18804;SDS011;9530;48.930;9.526;2022-07-01T14:53:44;2.60;;;1.10;;
18804;SDS011;9530;48.930;9.526;2022-07-01T14:56:10;1.37;;;0.90;;
18804;SDS011;9530;48.930;9.526;2022-07-01T14:58:37;1.90;;;1.07;;
18804;SDS011;9530;48.930;9.526;2022-07-01T15:01:08;5.67;;;1.10;;
18804;SDS011;9530;48.930;9.526;2022-07-01T15:03:35;2.47;;;1.03;;
18804;SDS011;9530;48.930;9.526;2022-07-01T15:06:03;1.93;;;1.13;;
18804;SDS011;9530;48.930;9.526;2022-07-01T15:08:29;3.77;;;1.20;;
18804;SDS011;9530;48.930;9.526;2022-07-01T15:10:56;2.07;;;1.03;;
18804;SDS011;9530;48.930;9.526;2022-07-01T15:13:27;2.23;;;1.00;;
18804;SDS011;9530;48.930;9.526;2022-07-01T15:15:55;2.17;;;0.90;;
18804;SDS011;9530;48.930;9.526;2022-07-01T15:18:24;2.37;;;0.80;;